Time;durP1;ratioP1;P1;durP2;ratioP2;P2;SDS_P1;SDS_P2;PMS_P1;PMS_P2;Temp;Humidity;BMP_temperature;BMP_pressure;BME280_temperature;BME280_humidity;BME280_pressure;Samples;Min_cycle;Max_cycle;Signal;HPM_P1;HPM_P2
2023/05/30 00:00:55;;;;;;;6.30;1.70;;;16.60;43.70;;;;;;5050612;28;20408;-46
2023/05/30 00:03:24;;;;;;;7.45;2.53;;;16.50;43.60;;;;;;5050517;28;20108;-45
2023/05/30 00:05:53;;;;;;;7.68;1.88;;;16.50;43.90;;;;;;5030832;28;20035;-44
2023/05/30 00:08:23;;;;;;;4.90;2.22;;;16.40;44.00;;;;;;5046258;28;20443;-46
2023/05/30 00:10:56;;;;;;;5.28;2.00;;;16.40;44.00;;;;;;5050332;28;20044;-47
2023/05/30 00:13:24;;;;;;;7.90;1.95;;;16.30;44.20;;;;;;5034936;28;20119;-45
2023/05/30 00:16:07;;;;;;;4.22;1.75;;;16.30;44.30;;;;;;5046481;28;20112;-47
2023/05/30 00:18:45;;;;;;;;;;;;;;;;;;;;;
2023/05/30 00:21:17;;;;;;;5.10;1.92;;;16.20;44.50;;;;;;5048532;28;20120;-46
2023/05/30 00:23:53;;;;;;;3.47;1.67;;;16.10;44.80;;;;;;5030184;28;20037;-48
2023/05/30 00:26:20;;;;;;;4.78;2.05;;;16.10;45.30;;;;;;5041409;28;20133;-46
2023/05/30 00:28:51;;;;;;;6.53;2.08;;;16.10;45.00;;;;;;5040595;28;20523;-45
2023/05/30 00:31:20;;;;;;;5.90;2.17;;;16.00;45.10;;;;;;5049519;28;20068;-45
2023/05/30 00:33:56;;;;;;;7.00;1.77;;;16.00;45.20;;;;;;5025258;28;20068;-46
2023/05/30 00:36:23;;;;;;;4.18;1.58;;;16.00;45.90;;;;;;5028798;28;20173;-46
2023/05/30 00:38:56;;;;;;;8.57;1.83;;;15.90;45.40;;;;;;5048400;28;20133;-49
2023/05/30 00:41:23;;;;;;;7.25;1.80;;;15.90;45.50;;;;;;5049022;28;20063;-44
2023/05/30 00:43:49;;;;;;;6.07;1.65;;;15.90;45.70;;;;;;5041312;28;20127;-47
2023/05/30 00:46:16;;;;;;;6.90;1.52;;;15.90;45.80;;;;;;5028942;28;20497;-45
2023/05/30 00:48:46;;;;;;;6.82;2.20;;;15.80;45.90;;;;;;5048265;28;20123;-45
2023/05/30 00:51:12;;;;;;;7.55;1.90;;;15.80;45.90;;;;;;5048256;28;20518;-46
2023/05/30 00:53:41;;;;;;;5.93;2.03;;;15.80;45.90;;;;;;5031404;28;20073;-45
2023/05/30 00:56:08;;;;;;;6.18;2.08;;;15.70;46.10;;;;;;5024185;28;20792;-46
2023/05/30 00:58:37;;;;;;;7.28;2.40;;;15.70;46.20;;;;;;5045180;28;20053;-47
2023/05/30 01:01:07;;;;;;;4.90;2.40;;;15.70;46.40;;;;;;5049381;28;20049;-48
2023/05/30 01:03:35;;;;;;;8.70;2.38;;;15.60;46.70;;;;;;5031866;28;20075;-45
2023/05/30 01:06:09;;;;;;;5.18;1.42;;;15.60;46.60;;;;;;5032862;28;20458;-49
2023/05/30 01:08:40;;;;;;;8.00;2.60;;;15.60;46.70;;;;;;5050293;28;20529;-46
2023/05/30 01:11:41;;;;;;;8.30;2.13;;;15.60;46.80;;;;;;5034054;28;20072;-48
2023/05/30 01:14:30;;;;;;;6.53;1.98;;;15.50;47.40;;;;;;5026284;28;20417;-45
2023/05/30 01:17:10;;;;;;;4.28;1.70;;;15.50;47.30;;;;;;5045451;28;20199;-45
2023/05/30 01:20:09;;;;;;;6.10;1.58;;;15.50;47.20;;;;;;5040686;28;20029;-44
2023/05/30 01:22:49;;;;;;;5.78;1.70;;;15.50;47.60;;;;;;5035607;28;20072;-46
2023/05/30 01:25:50;;;;;;;7.22;1.80;;;15.40;47.20;;;;;;5034958;28;20094;-45
2023/05/30 01:28:21;;;;;;;6.13;2.05;;;15.40;47.80;;;;;;5027854;28;20061;-44
2023/05/30 01:30:53;;;;;;;10.02;2.13;;;15.40;47.20;;;;;;5048284;28;20136;-45
2023/05/30 01:33:22;;;;;;;8.57;2.97;;;15.30;47.80;;;;;;5029948;28;20047;-46
2023/05/30 01:35:54;;;;;;;5.80;2.20;;;15.30;47.60;;;;;;5033847;28;20046;-45
2023/05/30 01:38:21;;;;;;;7.72;2.45;;;15.20;47.70;;;;;;5032622;28;20044;-45
2023/05/30 01:40:51;;;;;;;5.35;1.40;;;15.20;48.40;;;;;;5048144;28;20091;-45
2023/05/30 01:43:43;;;;;;;7.47;3.03;;;15.20;48.00;;;;;;5030287;28;20529;-45
2023/05/30 01:46:36;;;;;;;5.75;1.95;;;15.10;48.50;;;;;;5051210;28;20033;-47
2023/05/30 01:49:27;;;;;;;6.10;1.80;;;15.10;48.10;;;;;;5033408;28;20052;-44
2023/05/30 01:52:08;;;;;;;7.15;2.65;;;15.10;48.60;;;;;;5040558;28;20126;-49
2023/05/30 01:54:39;;;;;;;5.47;1.90;;;15.10;48.70;;;;;;5042967;28;20107;-49
2023/05/30 01:57:09;;;;;;;7.45;2.15;;;15.00;48.40;;;;;;5043545;28;20063;-49
2023/05/30 01:59:42;;;;;;;6.85;1.98;;;14.90;48.80;;;;;;5052963;28;20037;-49
2023/05/30 02:02:10;;;;;;;6.10;2.73;;;14.90;48.80;;;;;;5051528;28;20037;-44
2023/05/30 02:04:42;;;;;;;9.80;2.03;;;14.90;48.90;;;;;;5033152;28;20037;-44
2023/05/30 02:07:15;;;;;;;6.85;1.83;;;14.80;49.10;;;;;;5037773;28;20033;-45
2023/05/30 02:09:42;;;;;;;11.55;2.28;;;14.70;49.10;;;;;;5052443;28;20114;-46
2023/05/30 02:12:12;;;;;;;8.45;2.10;;;14.70;49.40;;;;;;5048533;28;20521;-45
2023/05/30 02:14:43;;;;;;;8.57;2.55;;;14.60;49.60;;;;;;5033096;28;20037;-45
2023/05/30 02:17:10;;;;;;;6.60;3.03;;;14.60;49.80;;;;;;5047545;28;20064;-44
2023/05/30 02:19:39;;;;;;;9.10;3.00;;;14.60;50.00;;;;;;5052631;28;20497;-49
2023/05/30 02:22:11;;;;;;;11.88;3.90;;;14.50;50.00;;;;;;5042141;28;20041;-45
2023/05/30 02:24:39;;;;;;;7.53;2.65;;;14.50;50.20;;;;;;5029118;28;20624;-46
2023/05/30 02:27:13;;;;;;;7.43;2.22;;;14.40;50.30;;;;;;5027608;28;20444;-44
2023/05/30 02:29:44;;;;;;;7.28;2.28;;;14.40;50.60;;;;;;5052307;28;20601;-45
2023/05/30 02:32:13;;;;;;;7.25;1.80;;;14.40;51.00;;;;;;5046150;28;20033;-47
2023/05/30 02:34:40;;;;;;;7.82;3.08;;;14.30;50.70;;;;;;5034181;28;20041;-44
2023/05/30 02:37:11;;;;;;;9.50;2.50;;;14.20;51.00;;;;;;5031609;28;20071;-45
2023/05/30 02:39:39;;;;;;;8.20;2.72;;;14.20;51.40;;;;;;5048200;28;20033;-46
2023/05/30 02:42:10;;;;;;;8.43;2.88;;;14.10;51.30;;;;;;5042809;28;20098;-46
2023/05/30 02:44:39;;;;;;;11.10;2.80;;;14.10;51.80;;;;;;5048287;28;20651;-47
2023/05/30 02:47:06;;;;;;;8.57;2.30;;;14.00;51.60;;;;;;5040304;28;20052;-46
2023/05/30 02:49:35;;;;;;;8.93;2.35;;;14.00;51.90;;;;;;5053010;28;20390;-45
2023/05/30 02:52:05;;;;;;;6.03;2.10;;;13.90;52.00;;;;;;5034587;28;20520;-48
2023/05/30 02:54:43;;;;;;;8.23;2.47;;;13.90;52.10;;;;;;5026055;28;20046;-47
2023/05/30 02:57:28;;;;;;;5.65;2.47;;;13.90;52.20;;;;;;5032975;28;20152;-48
2023/05/30 03:00:17;;;;;;;6.32;2.70;;;13.90;52.30;;;;;;5052414;28;20051;-47
2023/05/30 03:02:55;;;;;;;7.75;3.40;;;13.90;52.60;;;;;;5039631;28;20426;-44
2023/05/30 03:05:28;;;;;;;;;;;13.90;52.40;;;;;;5037271;28;20044;-44
2023/05/30 03:07:55;;;;;;;9.52;2.60;;;13.90;51.20;;;;;;5051256;28;19924;-45
2023/05/30 03:10:22;;;;;;;8.20;2.80;;;13.90;51.90;;;;;;5022054;22;20503;-43
2023/05/30 03:12:50;;;;;;;5.40;2.20;;;13.80;52.30;;;;;;4990930;28;20074;-42
2023/05/30 03:15:20;;;;;;;6.88;3.03;;;13.80;52.50;;;;;;4992466;28;20218;-42
2023/05/30 03:17:49;;;;;;;7.68;2.47;;;13.80;52.80;;;;;;4989374;28;20085;-44
2023/05/30 03:20:28;;;;;;;8.32;2.53;;;13.80;52.90;;;;;;4992238;28;20470;-44
2023/05/30 03:22:55;;;;;;;6.23;2.60;;;13.80;53.00;;;;;;4991083;28;20054;-45
2023/05/30 03:25:27;;;;;;;8.40;2.92;;;13.80;53.10;;;;;;4984850;28;20101;-42
2023/05/30 03:27:54;;;;;;;8.30;2.90;;;13.70;53.40;;;;;;4991320;28;20086;-44
2023/05/30 03:30:26;;;;;;;10.98;3.13;;;13.70;53.20;;;;;;4988321;28;20054;-43
2023/05/30 03:32:57;;;;;;;6.85;2.60;;;13.80;53.30;;;;;;4988341;28;20050;-47
2023/05/30 03:35:28;;;;;;;8.40;3.05;;;13.80;53.40;;;;;;4988137;28;20069;-46
2023/05/30 03:38:00;;;;;;;5.30;2.53;;;13.70;53.40;;;;;;5007172;28;20057;-45
2023/05/30 03:40:27;;;;;;;9.95;3.20;;;13.70;53.60;;;;;;4991326;28;20054;-43
2023/05/30 03:42:55;;;;;;;6.35;2.42;;;13.70;53.70;;;;;;4991969;28;20113;-43
2023/05/30 03:45:26;;;;;;;11.02;2.50;;;13.70;53.70;;;;;;4986781;28;20035;-43
2023/05/30 03:47:52;;;;;;;12.65;3.35;;;13.70;53.80;;;;;;5002877;28;20051;-44
2023/05/30 03:50:19;;;;;;;6.90;2.75;;;13.70;53.90;;;;;;4992567;28;20125;-46
2023/05/30 03:52:51;;;;;;;11.75;2.95;;;13.70;53.90;;;;;;4989999;28;20474;-44
2023/05/30 03:55:20;;;;;;;10.45;3.40;;;13.70;54.10;;;;;;4980128;28;20060;-43
2023/05/30 03:57:48;;;;;;;9.02;2.72;;;13.70;54.10;;;;;;4990681;28;20042;-44
2023/05/30 04:00:16;;;;;;;6.03;2.47;;;13.70;54.30;;;;;;4990736;28;20418;-43
2023/05/30 04:02:46;;;;;;;11.93;3.03;;;13.70;54.30;;;;;;4991538;28;20041;-44
2023/05/30 04:05:14;;;;;;;6.30;2.85;;;13.70;54.40;;;;;;5005354;28;20050;-42
2023/05/30 04:07:41;;;;;;;8.77;3.38;;;13.70;54.60;;;;;;4980082;28;20093;-44
2023/05/30 04:10:10;;;;;;;10.43;2.88;;;13.70;54.50;;;;;;4986469;28;20133;-43
2023/05/30 04:12:39;;;;;;;7.97;2.83;;;13.70;54.60;;;;;;4988215;28;20388;-46
2023/05/30 04:15:10;;;;;;;8.23;2.65;;;13.70;54.70;;;;;;5005646;28;20050;-44
2023/05/30 04:17:37;;;;;;;8.02;3.20;;;13.70;54.70;;;;;;4989712;28;20130;-43
2023/05/30 04:20:12;;;;;;;12.70;3.92;;;13.70;54.70;;;;;;4988574;28;20503;-43
2023/05/30 04:22:40;;;;;;;8.63;3.28;;;13.80;54.80;;;;;;4985811;28;20137;-44
2023/05/30 04:25:22;;;;;;;7.97;4.00;;;13.80;54.60;;;;;;5001401;28;20438;-43
2023/05/30 04:27:48;;;;;;;;;;;13.80;54.70;;;;;;4989941;28;20142;-44
2023/05/30 04:30:18;;;;;;;7.88;3.85;;;13.80;53.70;;;;;;5002638;28;19922;-47
2023/05/30 04:32:44;;;;;;;9.40;3.90;;;13.80;54.10;;;;;;4987754;28;20046;-43
2023/05/30 04:35:13;;;;;;;8.50;3.72;;;13.80;54.50;;;;;;4987564;28;20043;-45
2023/05/30 04:37:44;;;;;;;7.45;3.40;;;13.80;54.70;;;;;;5006075;28;20053;-44
2023/05/30 04:40:16;;;;;;;7.82;3.67;;;13.80;54.80;;;;;;4989705;28;20034;-44
2023/05/30 04:42:43;;;;;;;8.27;4.13;;;13.80;54.90;;;;;;4991527;28;20042;-46
2023/05/30 04:45:10;;;;;;;10.45;4.22;;;13.80;55.00;;;;;;4983928;28;20142;-45
2023/05/30 04:47:38;;;;;;;11.30;4.90;;;13.80;55.00;;;;;;4990483;28;20042;-47
2023/05/30 04:50:06;;;;;;;12.02;4.50;;;13.90;55.10;;;;;;4988825;28;20050;-44
2023/05/30 04:52:35;;;;;;;11.93;5.72;;;13.80;55.00;;;;;;4988838;28;20100;-42
2023/05/30 04:55:02;;;;;;;10.77;4.65;;;13.90;55.30;;;;;;4987911;28;20054;-46
2023/05/30 04:57:36;;;;;;;10.82;4.70;;;13.90;55.20;;;;;;4986877;28;20466;-47
2023/05/30 05:00:04;;;;;;;11.32;5.15;;;13.90;55.40;;;;;;4987727;28;20056;-48
2023/05/30 05:02:34;;;;;;;11.98;5.97;;;14.00;55.10;;;;;;4990179;28;20093;-45
2023/05/30 05:05:06;;;;;;;10.10;5.95;;;14.00;55.20;;;;;;4990294;28;20050;-43
2023/05/30 05:07:33;;;;;;;8.80;4.68;;;14.00;55.20;;;;;;4990826;28;20129;-42
2023/05/30 05:10:10;;;;;;;13.57;6.07;;;14.00;55.10;;;;;;4989326;28;20057;-44
2023/05/30 05:12:39;;;;;;;15.95;5.85;;;14.10;55.10;;;;;;4990106;28;20125;-46
2023/05/30 05:15:09;;;;;;;14.27;6.43;;;14.10;55.10;;;;;;4981918;28;20070;-49
2023/05/30 05:17:38;;;;;;;12.18;5.95;;;14.10;55.10;;;;;;4982245;28;20120;-50
2023/05/30 05:20:12;;;;;;;11.60;5.63;;;14.10;55.20;;;;;;4988984;28;20053;-47
2023/05/30 05:22:38;;;;;;;13.32;6.30;;;14.10;55.20;;;;;;4983942;28;20046;-46
2023/05/30 05:25:08;;;;;;;10.77;5.55;;;14.20;55.60;;;;;;4987903;28;20502;-50
2023/05/30 05:27:38;;;;;;;15.05;6.95;;;14.20;55.10;;;;;;4989002;28;20080;-47
2023/05/30 05:30:06;;;;;;;11.73;5.57;;;14.20;55.30;;;;;;4989272;28;20065;-48
2023/05/30 05:32:38;;;;;;;10.73;5.68;;;14.20;55.10;;;;;;4994425;28;20058;-49
2023/05/30 05:35:08;;;;;;;12.68;6.35;;;14.30;55.10;;;;;;4987593;28;20046;-47
2023/05/30 05:37:35;;;;;;;11.15;5.38;;;14.30;55.00;;;;;;4992469;28;20598;-50
2023/05/30 05:40:05;;;;;;;11.30;5.88;;;14.40;54.90;;;;;;4989191;28;20120;-50
2023/05/30 05:42:33;;;;;;;10.48;6.00;;;14.40;54.80;;;;;;4993594;28;20569;-47
2023/05/30 05:45:01;;;;;;;13.73;6.63;;;14.50;54.60;;;;;;4986069;28;20130;-47
2023/05/30 05:47:30;;;;;;;11.65;6.05;;;14.50;54.50;;;;;;4993989;28;20101;-49
2023/05/30 05:49:56;;;;;;;10.57;6.05;;;14.50;54.30;;;;;;4988878;28;20052;-50
2023/05/30 05:52:24;;;;;;;12.20;7.32;;;14.50;54.20;;;;;;4988100;28;20108;-47
2023/05/30 05:54:53;;;;;;;12.35;6.45;;;14.60;54.10;;;;;;4988233;28;20105;-47
2023/05/30 05:57:22;;;;;;;11.82;5.97;;;14.60;54.20;;;;;;4987759;28;20153;-46
2023/05/30 05:59:52;;;;;;;9.40;5.90;;;14.60;53.90;;;;;;4989336;28;20129;-46
2023/05/30 06:02:20;;;;;;;12.25;6.05;;;14.60;53.70;;;;;;4992909;28;20074;-46
2023/05/30 06:04:47;;;;;;;12.48;5.63;;;14.60;53.70;;;;;;4988853;28;20046;-51
2023/05/30 06:07:15;;;;;;;10.13;5.85;;;14.70;53.80;;;;;;4992928;28;20046;-51
2023/05/30 06:09:41;;;;;;;12.45;5.25;;;14.70;54.40;;;;;;4988730;28;20070;-47
2023/05/30 06:12:13;;;;;;;10.75;4.60;;;14.70;53.80;;;;;;4984940;28;20050;-49
2023/05/30 06:14:42;;;;;;;13.55;6.00;;;14.70;53.60;;;;;;4984243;28;20046;-47
2023/05/30 06:17:09;;;;;;;6.65;4.32;;;14.70;53.50;;;;;;4992268;28;20125;-47
2023/05/30 06:19:38;;;;;;;10.05;4.82;;;14.80;53.80;;;;;;4988522;28;20037;-49
2023/05/30 06:22:07;;;;;;;8.23;4.30;;;14.80;53.70;;;;;;4990498;28;20061;-47
2023/05/30 06:24:42;;;;;;;10.65;4.40;;;14.80;53.80;;;;;;4989627;28;20038;-48
2023/05/30 06:27:11;;;;;;;9.45;4.53;;;14.90;53.70;;;;;;4986710;28;20134;-47
2023/05/30 06:29:41;;;;;;;8.93;4.53;;;14.90;53.60;;;;;;4985027;28;20763;-48
2023/05/30 06:32:13;;;;;;;7.32;4.50;;;15.00;53.50;;;;;;4992415;28;20447;-50
2023/05/30 06:34:50;;;;;;;7.90;4.22;;;15.10;53.50;;;;;;4989795;28;20049;-50
2023/05/30 06:37:19;;;;;;;8.05;4.32;;;15.20;53.30;;;;;;4988782;28;20061;-48
2023/05/30 06:39:50;;;;;;;14.75;4.93;;;15.20;53.10;;;;;;4992400;28;20897;-48
2023/05/30 06:42:20;;;;;;;11.35;4.70;;;15.20;52.80;;;;;;4991752;28;20885;-49
2023/05/30 06:44:49;;;;;;;9.43;4.80;;;15.30;52.70;;;;;;4990857;28;20047;-46
2023/05/30 06:47:18;;;;;;;7.80;4.78;;;15.40;52.60;;;;;;4992990;28;20150;-47
2023/05/30 06:49:49;;;;;;;9.88;4.72;;;15.30;52.30;;;;;;4991310;28;20054;-46
2023/05/30 06:52:15;;;;;;;9.02;4.50;;;15.30;52.10;;;;;;5001158;28;20042;-47
2023/05/30 06:54:46;;;;;;;9.98;4.85;;;15.30;52.20;;;;;;5005233;28;20053;-47
2023/05/30 06:57:15;;;;;;;9.25;4.38;;;15.30;52.20;;;;;;4991638;28;20054;-51
2023/05/30 06:59:41;;;;;;;8.88;5.63;;;15.40;52.40;;;;;;4992809;28;20126;-49
2023/05/30 07:02:15;;;;;;;10.88;4.15;;;15.40;52.40;;;;;;4993003;28;20418;-47
2023/05/30 07:04:41;;;;;;;12.77;4.63;;;15.40;52.40;;;;;;4992908;28;20495;-50
2023/05/30 07:07:09;;;;;;;10.88;5.10;;;15.40;52.30;;;;;;4992404;28;20053;-47
2023/05/30 07:09:36;;;;;;;11.20;4.40;;;15.40;52.30;;;;;;4990268;28;20503;-47
2023/05/30 07:12:03;;;;;;;9.20;4.32;;;15.40;52.30;;;;;;4983267;28;20135;-47
2023/05/30 07:14:29;;;;;;;9.07;4.07;;;15.40;52.30;;;;;;4995606;28;20403;-46
2023/05/30 07:16:58;;;;;;;9.55;4.38;;;15.50;52.30;;;;;;4992209;28;20067;-51
2023/05/30 07:19:27;;;;;;;16.63;4.55;;;15.50;52.30;;;;;;4988840;28;20069;-48
2023/05/30 07:21:57;;;;;;;8.43;4.68;;;15.50;52.40;;;;;;4993371;28;20073;-51
2023/05/30 07:24:23;;;;;;;10.77;5.22;;;15.50;52.20;;;;;;4992548;28;20046;-51
2023/05/30 07:26:52;;;;;;;7.45;4.47;;;15.50;52.30;;;;;;4986926;28;20078;-47
2023/05/30 07:29:19;;;;;;;11.80;5.20;;;15.50;52.50;;;;;;4991524;28;20137;-50
2023/05/30 07:31:46;;;;;;;13.90;4.95;;;15.50;52.30;;;;;;4996507;28;20105;-51
2023/05/30 07:34:18;;;;;;;9.83;4.60;;;15.50;52.20;;;;;;4990912;28;20150;-51
2023/05/30 07:36:45;;;;;;;8.95;4.45;;;15.50;52.00;;;;;;4995892;28;20117;-49
2023/05/30 07:39:11;;;;;;;9.15;4.65;;;15.50;51.90;;;;;;4992606;28;20519;-47
2023/05/30 07:41:39;;;;;;;9.10;4.20;;;15.60;52.20;;;;;;4995738;28;20034;-48
2023/05/30 07:44:09;;;;;;;8.48;4.53;;;15.60;51.90;;;;;;4991351;28;20063;-47
2023/05/30 07:46:38;;;;;;;10.38;4.70;;;15.60;52.40;;;;;;4994685;28;20046;-47
2023/05/30 07:49:09;;;;;;;6.93;4.72;;;15.70;52.50;;;;;;4992687;28;20108;-48
2023/05/30 07:51:36;;;;;;;12.18;4.75;;;15.80;51.80;;;;;;4995135;28;20050;-51
2023/05/30 07:54:12;;;;;;;10.60;5.13;;;15.80;51.90;;;;;;4990890;28;20070;-49
2023/05/30 07:56:38;;;;;;;8.75;4.03;;;15.80;52.00;;;;;;4990938;28;20066;-48
2023/05/30 07:59:07;;;;;;;14.15;4.68;;;15.90;52.00;;;;;;4992046;28;20072;-48
2023/05/30 08:01:36;;;;;;;7.25;4.32;;;15.90;52.20;;;;;;4994248;28;20046;-50
2023/05/30 08:04:03;;;;;;;11.13;5.68;;;16.00;52.20;;;;;;4991937;28;20070;-48
2023/05/30 08:06:31;;;;;;;8.88;3.97;;;16.00;51.70;;;;;;4993653;28;20046;-46
2023/05/30 08:09:15;;;;;;;10.65;4.55;;;16.00;51.80;;;;;;4991357;28;20053;-46
2023/05/30 08:11:43;;;;;;;6.40;4.20;;;16.10;51.50;;;;;;4993220;28;20438;-47
2023/05/30 08:14:14;;;;;;;9.95;5.20;;;16.20;51.60;;;;;;4991285;28;20053;-49
2023/05/30 08:16:41;;;;;;;9.93;4.50;;;16.20;51.30;;;;;;4993774;28;20077;-48
2023/05/30 08:19:11;;;;;;;9.95;5.72;;;16.20;50.90;;;;;;4990044;28;20108;-50
2023/05/30 08:21:43;;;;;;;13.05;4.65;;;16.30;51.60;;;;;;4993296;28;20567;-47
2023/05/30 08:24:15;;;;;;;10.75;5.30;;;16.30;51.00;;;;;;4990856;28;20035;-47
2023/05/30 08:26:41;;;;;;;9.25;4.35;;;16.30;51.20;;;;;;4991999;28;20057;-47
2023/05/30 08:29:11;;;;;;;8.32;4.68;;;16.30;50.90;;;;;;4990689;28;20138;-47
2023/05/30 08:31:41;;;;;;;11.85;5.90;;;16.40;51.00;;;;;;4992356;28;20042;-47
2023/05/30 08:34:10;;;;;;;9.98;5.40;;;16.40;51.00;;;;;;4991760;28;20077;-48
2023/05/30 08:36:37;;;;;;;7.57;4.07;;;16.50;50.90;;;;;;4991272;28;20050;-48
2023/05/30 08:39:06;;;;;;;9.75;5.10;;;16.50;50.90;;;;;;4990839;28;20130;-48
2023/05/30 08:41:47;;;;;;;7.65;4.97;;;16.50;50.50;;;;;;4989678;28;20043;-47
2023/05/30 08:44:14;;;;;;;9.25;4.60;;;16.50;50.40;;;;;;4990611;28;20133;-47
2023/05/30 08:46:43;;;;;;;6.07;4.47;;;16.60;50.30;;;;;;4991390;28;20108;-49
2023/05/30 08:49:20;;;;;;;7.43;4.47;;;16.60;50.30;;;;;;4990262;28;20065;-49
2023/05/30 08:51:48;;;;;;;9.50;5.78;;;16.70;50.60;;;;;;4990807;28;20279;-50
2023/05/30 08:54:25;;;;;;;7.72;4.53;;;16.70;50.70;;;;;;4990199;28;20065;-51
2023/05/30 08:57:04;;;;;;;10.50;5.15;;;16.80;50.90;;;;;;4990898;28;20438;-48
2023/05/30 08:59:34;;;;;;;9.77;5.55;;;16.80;51.10;;;;;;4981967;28;20122;-46
2023/05/30 09:02:02;;;;;;;9.45;4.95;;;16.90;50.50;;;;;;4991086;28;20561;-47
2023/05/30 09:04:29;;;;;;;7.40;4.50;;;16.90;50.20;;;;;;4990293;28;20514;-49
2023/05/30 09:06:57;;;;;;;8.43;5.40;;;17.00;50.00;;;;;;4983490;28;20559;-48
2023/05/30 09:09:29;;;;;;;6.80;4.97;;;17.00;50.00;;;;;;4989087;28;20084;-50
2023/05/30 09:11:58;;;;;;;9.25;4.47;;;17.10;49.90;;;;;;4983384;28;20125;-49
2023/05/30 09:14:26;;;;;;;8.25;5.22;;;17.10;49.40;;;;;;4990470;28;20055;-51
2023/05/30 09:16:55;;;;;;;8.82;5.03;;;17.10;49.40;;;;;;4996223;28;20080;-50
2023/05/30 09:19:28;;;;;;;14.10;6.40;;;17.20;49.60;;;;;;4989940;28;20454;-48
2023/05/30 09:21:56;;;;;;;9.65;5.82;;;17.20;49.70;;;;;;4993978;28;20392;-48
2023/05/30 09:25:02;;;;;;;8.68;5.80;;;17.20;49.90;;;;;;4990164;28;20117;-50
2023/05/30 09:27:34;;;;;;;8.50;5.38;;;17.30;50.10;;;;;;4996094;28;20030;-47
2023/05/30 09:30:09;;;;;;;9.15;6.07;;;17.30;49.70;;;;;;4989970;28;20055;-49
2023/05/30 09:32:40;;;;;;;8.15;5.07;;;17.30;50.00;;;;;;4996356;28;20038;-48
2023/05/30 09:35:09;;;;;;;8.18;5.35;;;17.40;49.90;;;;;;4988766;28;20109;-47
2023/05/30 09:37:43;;;;;;;10.90;5.75;;;17.40;50.00;;;;;;4996643;28;20121;-47
2023/05/30 09:40:17;;;;;;;11.38;5.03;;;17.50;49.50;;;;;;4988201;28;20122;-47
2023/05/30 09:42:52;;;;;;;7.68;5.10;;;17.50;49.30;;;;;;4981896;28;20470;-47
2023/05/30 09:45:26;;;;;;;6.28;5.25;;;17.60;48.70;;;;;;4987424;28;20042;-49
2023/05/30 09:47:53;;;;;;;9.00;5.55;;;17.60;48.90;;;;;;4990635;28;20038;-48
2023/05/30 09:50:26;;;;;;;10.70;5.22;;;17.60;49.60;;;;;;4989204;28;20069;-47
2023/05/30 09:52:55;;;;;;;;;;;17.70;49.50;;;;;;4991006;28;20459;-47
2023/05/30 09:55:25;;;;;;;7.97;5.25;;;17.80;49.00;;;;;;4988941;28;19928;-48
2023/05/30 09:57:53;;;;;;;10.02;5.78;;;17.90;49.00;;;;;;4990307;28;20121;-47
2023/05/30 10:00:25;;;;;;;9.82;5.63;;;17.90;48.70;;;;;;4989741;28;20098;-46
2023/05/30 10:02:55;;;;;;;10.25;5.43;;;18.00;48.70;;;;;;4989309;28;20043;-50
2023/05/30 10:05:27;;;;;;;11.30;5.97;;;18.00;48.20;;;;;;4988731;28;20046;-48
2023/05/30 10:07:56;;;;;;;9.75;5.85;;;18.00;48.30;;;;;;4989915;28;20054;-47
2023/05/30 10:10:23;;;;;;;11.27;5.28;;;18.10;48.90;;;;;;4990836;28;20129;-46
2023/05/30 10:12:54;;;;;;;7.53;4.45;;;18.10;48.50;;;;;;4993200;28;20054;-49
2023/05/30 10:15:28;;;;;;;8.65;4.68;;;18.20;48.00;;;;;;4993140;28;20527;-47
2023/05/30 10:18:09;;;;;;;6.85;4.60;;;18.20;48.00;;;;;;4994843;28;20053;-50
2023/05/30 10:20:46;;;;;;;9.35;4.35;;;18.30;48.20;;;;;;4994269;28;20089;-47
2023/05/30 10:23:13;;;;;;;11.27;5.60;;;18.30;48.30;;;;;;4993340;28;20042;-48
2023/05/30 10:25:57;;;;;;;7.88;4.85;;;18.40;48.00;;;;;;4990849;28;20038;-46
2023/05/30 10:28:28;;;;;;;10.93;5.20;;;18.40;47.80;;;;;;4992832;28;20126;-47
2023/05/30 10:30:56;;;;;;;11.77;4.75;;;18.60;46.90;;;;;;4993497;28;20051;-50
2023/05/30 10:33:29;;;;;;;9.65;4.88;;;18.60;47.50;;;;;;4992869;28;20116;-47
2023/05/30 10:36:22;;;;;;;8.02;4.35;;;18.70;47.50;;;;;;4992054;28;20057;-47
2023/05/30 10:39:15;;;;;;;6.85;4.43;;;18.80;46.60;;;;;;4992692;28;20057;-49
2023/05/30 10:42:15;;;;;;;8.52;5.13;;;18.80;46.70;;;;;;4994435;28;20045;-47
2023/05/30 10:45:07;;;;;;;7.82;5.25;;;18.90;46.80;;;;;;4992748;28;20105;-47
2023/05/30 10:48:13;;;;;;;9.05;4.95;;;18.90;47.00;;;;;;4992929;28;20093;-49
2023/05/30 10:50:50;;;;;;;7.72;4.40;;;19.00;47.30;;;;;;4993068;28;20061;-46
2023/05/30 10:53:20;;;;;;;8.00;4.90;;;19.00;46.60;;;;;;5013138;22;20169;-49
2023/05/30 10:55:51;;;;;;;;;;;19.10;46.50;;;;;;5008472;28;20052;-51
2023/05/30 10:58:37;;;;;;;7.45;4.47;;;19.20;46.70;;;;;;5012018;28;19967;-47
2023/05/30 11:01:33;;;;;;;6.72;4.85;;;19.20;47.00;;;;;;5013319;28;20490;-50
2023/05/30 11:04:05;;;;;;;6.57;3.75;;;19.30;46.20;;;;;;5006110;28;20569;-52
2023/05/30 11:06:40;;;;;;;6.32;4.25;;;19.30;46.20;;;;;;4992692;28;20049;-50
2023/05/30 11:09:14;;;;;;;7.07;4.20;;;19.40;45.10;;;;;;4993931;28;20097;-48
2023/05/30 11:11:42;;;;;;;7.35;3.70;;;19.40;45.90;;;;;;4997957;28;20121;-51
2023/05/30 11:14:13;;;;;;;8.48;4.35;;;19.50;45.50;;;;;;4987670;28;20593;-52
2023/05/30 11:16:48;;;;;;;10.57;4.72;;;19.60;45.80;;;;;;5007741;28;20046;-52
2023/05/30 11:19:19;;;;;;;5.63;3.88;;;19.60;45.50;;;;;;5011579;28;20060;-52
2023/05/30 11:21:57;;;;;;;5.43;3.63;;;19.70;44.80;;;;;;4996944;28;20038;-53
2023/05/30 11:24:30;;;;;;;7.80;3.95;;;19.80;44.60;;;;;;4993301;28;20069;-51
2023/05/30 11:27:06;;;;;;;6.63;3.88;;;19.90;45.00;;;;;;4999200;28;20038;-52
2023/05/30 11:29:51;;;;;;;7.28;4.10;;;20.00;44.70;;;;;;5010893;28;20042;-52
2023/05/30 11:32:28;;;;;;;9.13;3.83;;;20.10;43.50;;;;;;4998834;28;20041;-52
2023/05/30 11:35:00;;;;;;;5.63;3.90;;;20.20;43.40;;;;;;4994015;28;20042;-52
2023/05/30 11:37:34;;;;;;;5.70;3.80;;;20.20;43.10;;;;;;5011181;28;20437;-52
2023/05/30 11:40:08;;;;;;;6.45;4.40;;;20.30;43.80;;;;;;5011558;28;20054;-52
2023/05/30 11:42:37;;;;;;;11.02;5.00;;;20.40;44.00;;;;;;4989561;28;20053;-52
2023/05/30 11:45:07;;;;;;;6.80;4.55;;;20.50;44.10;;;;;;5006623;28;20113;-51
2023/05/30 11:47:34;;;;;;;9.70;3.83;;;20.50;43.20;;;;;;5011039;28;20462;-52
2023/05/30 11:50:09;;;;;;;8.75;5.22;;;20.60;43.80;;;;;;4993059;28;20042;-52
2023/05/30 11:52:39;;;;;;;7.05;4.95;;;20.70;43.60;;;;;;5006265;28;20682;-52
2023/05/30 11:55:09;;;;;;;9.00;5.10;;;20.90;43.60;;;;;;4991585;28;20050;-52
2023/05/30 11:57:45;;;;;;;9.43;4.80;;;20.90;43.20;;;;;;4996351;28;20042;-50
2023/05/30 12:00:18;;;;;;;6.57;4.55;;;21.00;42.90;;;;;;5010654;28;20129;-47
2023/05/30 12:02:47;;;;;;;5.82;4.38;;;21.10;43.00;;;;;;4992151;28;20477;-46
2023/05/30 12:05:18;;;;;;;8.07;4.32;;;21.10;42.80;;;;;;4992028;28;20518;-44
2023/05/30 12:07:51;;;;;;;6.65;4.57;;;21.20;43.30;;;;;;4995771;28;20041;-46
2023/05/30 12:10:31;;;;;;;8.90;5.18;;;21.20;42.70;;;;;;4991456;28;20408;-49
2023/05/30 12:13:02;;;;;;;7.93;4.30;;;21.30;42.70;;;;;;4989962;28;20173;-47
2023/05/30 12:15:31;;;;;;;9.05;4.38;;;21.40;42.10;;;;;;4995561;28;20048;-46
2023/05/30 12:18:02;;;;;;;5.95;4.05;;;21.40;41.80;;;;;;5007221;28;20465;-47
2023/05/30 12:20:41;;;;;;;6.20;3.95;;;21.60;42.00;;;;;;5007968;28;20803;-49
2023/05/30 12:23:13;;;;;;;6.68;3.97;;;21.60;42.10;;;;;;4997354;28;20047;-44
2023/05/30 12:25:55;;;;;;;6.20;4.90;;;21.70;41.40;;;;;;4993220;28;20526;-44
2023/05/30 12:28:22;;;;;;;5.22;4.15;;;21.80;41.70;;;;;;5003805;28;20045;-46
2023/05/30 12:30:53;;;;;;;4.50;4.10;;;21.90;41.30;;;;;;5011373;28;20121;-46
2023/05/30 12:33:23;;;;;;;8.63;4.17;;;22.00;41.80;;;;;;4999016;28;20113;-46
2023/05/30 12:35:56;;;;;;;9.88;4.18;;;22.00;41.50;;;;;;4997864;28;20497;-44
2023/05/30 12:38:25;;;;;;;8.68;4.55;;;22.10;41.50;;;;;;4999612;28;20042;-44
2023/05/30 12:40:54;;;;;;;10.13;4.32;;;22.10;40.60;;;;;;4991861;28;20047;-47
2023/05/30 12:43:30;;;;;;;9.07;4.15;;;22.20;40.60;;;;;;4989142;28;20038;-45
2023/05/30 12:46:08;;;;;;;5.32;3.80;;;22.30;40.00;;;;;;5003468;28;20065;-48
2023/05/30 12:48:35;;;;;;;9.77;4.75;;;22.40;40.20;;;;;;5010435;28;20046;-43
2023/05/30 12:51:04;;;;;;;9.02;4.30;;;22.50;40.20;;;;;;4993133;28;20050;-46
2023/05/30 12:53:36;;;;;;;9.73;4.88;;;22.60;40.80;;;;;;5002286;28;20043;-46
2023/05/30 12:56:02;;;;;;;6.35;3.72;;;22.70;40.60;;;;;;4991799;28;20077;-47
2023/05/30 12:58:29;;;;;;;7.32;4.53;;;22.80;40.60;;;;;;5008474;28;20073;-47
2023/05/30 13:00:59;;;;;;;7.57;4.60;;;22.90;40.50;;;;;;5010572;28;20477;-48
2023/05/30 13:03:33;;;;;;;5.43;4.47;;;23.00;41.10;;;;;;4992694;28;20068;-48
2023/05/30 13:06:03;;;;;;;6.93;3.85;;;23.00;39.50;;;;;;5006554;28;20046;-49
2023/05/30 13:08:30;;;;;;;6.95;3.95;;;23.10;40.50;;;;;;5010753;28;20065;-49